Time;durP1;ratioP1;P1;durP2;ratioP2;P2;SDS_P1;SDS_P2;PMS_P1;PMS_P2;Temp;Humidity;BMP_temperature;BMP_pressure;BME280_temperature;BME280_humidity;BME280_pressure;Samples;Min_cycle;Max_cycle;Signal;HPM_P1;HPM_P2
2023/03/11 00:00:17;;;;;;;4.78;1.55;;;;;;;4.28;48.07;100196.06;5011760;28;20046;-78
2023/03/11 00:02:47;;;;;;;2.92;1.33;;;;;;;4.26;48.35;100202.56;5014475;28;20145;-78
2023/03/11 00:05:17;;;;;;;3.80;1.48;;;;;;;4.25;48.26;100198.97;5013899;28;20583;-78
2023/03/11 00:07:45;;;;;;;4.70;1.60;;;;;;;4.23;48.31;100203.63;5011249;28;20058;-78
2023/03/11 00:10:15;;;;;;;3.38;1.35;;;;;;;4.24;47.98;100205.38;5011745;28;20038;-78
2023/03/11 00:12:43;;;;;;;4.95;1.70;;;;;;;4.23;48.38;100213.59;5014103;28;20088;-78
2023/03/11 00:15:12;;;;;;;4.22;1.67;;;;;;;4.21;48.12;100221.88;5016900;28;20053;-78
2023/03/11 00:17:41;;;;;;;3.15;1.60;;;;;;;4.21;48.19;100210.16;5020275;28;20042;-78
2023/03/11 00:20:17;;;;;;;3.03;1.40;;;;;;;4.23;48.21;100214.47;5017147;28;20053;-78
2023/03/11 00:22:44;;;;;;;3.95;1.35;;;;;;;4.19;48.28;100212.97;5006120;28;20088;-78
2023/03/11 00:25:13;;;;;;;3.55;1.60;;;;;;;4.19;48.27;100221.09;5013039;28;20056;-77
2023/03/11 00:27:41;;;;;;;3.33;1.20;;;;;;;4.19;48.38;100226.50;5010710;28;20053;-77
2023/03/11 00:30:10;;;;;;;3.08;1.40;;;;;;;4.20;48.42;100233.66;5016333;28;20041;-77
2023/03/11 00:32:39;;;;;;;3.80;1.25;;;;;;;4.20;48.41;100238.22;5006602;28;20034;-77
2023/03/11 00:35:13;;;;;;;5.47;1.60;;;;;;;4.22;48.03;100237.16;5012673;28;20046;-77
2023/03/11 00:37:41;;;;;;;3.33;1.60;;;;;;;4.20;48.31;100243.63;5005237;28;20057;-77
2023/03/11 00:40:12;;;;;;;3.60;1.60;;;;;;;4.22;48.19;100244.41;5009181;28;20509;-79
2023/03/11 00:42:40;;;;;;;3.67;1.60;;;;;;;4.22;48.50;100255.22;5012666;28;20117;-78
2023/03/11 00:45:11;;;;;;;3.53;1.45;;;;;;;4.22;48.17;100260.66;5018613;28;20064;-78
2023/03/11 00:47:39;;;;;;;4.32;1.45;;;;;;;4.21;48.08;100253.50;5009509;28;20042;-77
2023/03/11 00:50:11;;;;;;;4.07;1.75;;;;;;;4.22;48.24;100255.22;5014589;28;20041;-77
2023/03/11 00:52:39;;;;;;;3.30;1.33;;;;;;;4.18;48.20;100259.97;5007856;28;20128;-78
2023/03/11 00:55:08;;;;;;;3.80;1.38;;;;;;;4.20;48.28;100262.59;5011437;28;20049;-78
2023/03/11 00:57:36;;;;;;;3.95;1.85;;;;;;;4.19;48.56;100268.97;5005147;28;20049;-77
2023/03/11 01:00:05;;;;;;;3.72;1.80;;;;;;;4.19;48.47;100269.84;5014477;28;20132;-78
2023/03/11 01:02:36;;;;;;;3.15;1.30;;;;;;;4.19;48.24;100261.72;5020170;28;20077;-78
2023/03/11 01:05:05;;;;;;;5.72;1.50;;;;;;;4.18;48.32;100276.25;5005361;28;20049;-78
2023/03/11 01:07:35;;;;;;;5.07;1.50;;;;;;;4.18;48.34;100268.09;5014058;28;20064;-78
2023/03/11 01:10:04;;;;;;;2.13;1.15;;;;;;;4.18;48.31;100273.53;5007292;28;20053;-78
2023/03/11 01:12:32;;;;;;;5.53;1.45;;;;;;;4.17;48.51;100274.50;5016741;28;20033;-78
2023/03/11 01:15:02;;;;;;;4.25;1.50;;;;;;;4.17;48.42;100279.91;5006178;28;20045;-78
2023/03/11 01:17:30;;;;;;;2.97;1.50;;;;;;;4.16;48.52;100270.06;5015242;28;20054;-78
2023/03/11 01:19:58;;;;;;;3.10;1.38;;;;;;;4.17;48.40;100279.91;5007058;28;20056;-78
2023/03/11 01:22:26;;;;;;;5.00;1.50;;;;;;;4.16;48.46;100276.34;5006596;28;20513;-78
2023/03/11 01:24:55;;;;;;;3.10;1.23;;;;;;;4.18;48.47;100278.06;5007738;28;20556;-78
2023/03/11 01:27:24;;;;;;;5.60;1.60;;;;;;;4.16;48.46;100279.03;5010650;28;20049;-77
2023/03/11 01:29:52;;;;;;;4.20;1.50;;;;;;;4.16;48.58;100278.19;5010864;28;20128;-77
2023/03/11 01:32:20;;;;;;;4.80;1.40;;;;;;;4.16;48.29;100280.88;5009557;28;20046;-78
2023/03/11 01:34:48;;;;;;;4.95;1.55;;;;;;;4.16;48.48;100289.88;5005297;28;20050;-78
2023/03/11 01:37:15;;;;;;;3.90;1.38;;;;;;;4.15;48.68;100288.13;5011127;28;20046;-77
2023/03/11 01:39:43;;;;;;;5.70;1.48;;;;;;;4.14;48.44;100289.09;5005395;28;20041;-78
2023/03/11 01:42:12;;;;;;;2.95;1.30;;;;;;;4.17;48.73;100293.47;5007821;28;20577;-78
2023/03/11 01:44:40;;;;;;;3.55;1.45;;;;;;;4.15;48.72;100292.69;5011601;28;20045;-78
2023/03/11 01:47:38;;;;;;;3.92;1.50;;;;;;;4.16;47.55;100298.00;5006826;28;20045;-78
2023/03/11 01:50:12;;;;;;;2.92;1.27;;;;;;;4.14;48.37;100296.41;5001386;28;20121;-78
2023/03/11 01:52:42;;;;;;;4.22;1.50;;;;;;;4.14;48.62;100301.81;5004464;28;20121;-78
2023/03/11 01:55:12;;;;;;;3.30;1.60;;;;;;;4.15;48.58;100303.53;5005725;28;20042;-78
2023/03/11 01:57:43;;;;;;;5.50;1.60;;;;;;;4.14;48.29;100307.22;5005658;28;20477;-78
2023/03/11 02:00:15;;;;;;;3.35;1.42;;;;;;;4.14;48.35;100305.34;5010224;28;20123;-78
2023/03/11 02:02:48;;;;;;;3.10;1.53;;;;;;;4.11;48.47;100311.00;5010939;28;20092;-79
2023/03/11 02:05:18;;;;;;;3.75;1.48;;;;;;;4.09;48.42;100307.53;5006130;28;20054;-78
2023/03/11 02:07:47;;;;;;;3.45;1.23;;;;;;;4.10;48.77;100311.09;5008795;28;20060;-78
2023/03/11 02:10:18;;;;;;;3.88;1.45;;;;;;;4.10;48.18;100308.41;5008262;28;20049;-78
2023/03/11 02:12:50;;;;;;;2.92;1.33;;;;;;;4.10;48.40;100305.69;5007072;28;20050;-78
2023/03/11 02:15:28;;;;;;;5.20;1.55;;;;;;;4.07;48.36;100309.47;5006577;28;20044;-78
2023/03/11 02:17:59;;;;;;;5.95;1.50;;;;;;;4.06;48.45;100306.88;5006669;28;20046;-79
2023/03/11 02:20:36;;;;;;;2.88;1.50;;;;;;;4.07;48.18;100322.16;5007642;28;20034;-78
2023/03/11 02:23:11;;;;;;;3.03;1.52;;;;;;;4.01;48.56;100311.75;5009287;28;20042;-78
2023/03/11 02:25:43;;;;;;;3.65;1.60;;;;;;;4.02;48.25;100311.66;5008002;28;20072;-78
2023/03/11 02:28:16;;;;;;;3.80;1.42;;;;;;;4.01;47.79;100315.31;5008221;28;20050;-78
2023/03/11 02:30:45;;;;;;;3.17;1.40;;;;;;;3.98;47.94;100307.41;5009020;28;20390;-78
2023/03/11 02:33:15;;;;;;;3.95;1.38;;;;;;;3.98;47.80;100312.81;5013983;28;20531;-78
2023/03/11 02:35:45;;;;;;;4.75;1.60;;;;;;;3.96;47.87;100316.63;5015727;28;20077;-78
2023/03/11 02:38:13;;;;;;;4.63;1.58;;;;;;;3.94;47.49;100314.00;5002841;28;20485;-78
2023/03/11 02:40:54;;;;;;;3.67;1.30;;;;;;;3.95;47.18;100321.16;5004505;28;20038;-78
2023/03/11 02:43:32;;;;;;;3.42;1.40;;;;;;;3.91;47.23;100316.91;5005421;28;20054;-78
2023/03/11 02:46:01;;;;;;;4.10;1.45;;;;;;;3.89;47.78;100321.59;5005167;28;20130;-78
2023/03/11 02:48:30;;;;;;;5.00;1.70;;;;;;;3.88;47.62;100325.28;5015560;28;20041;-78
2023/03/11 02:51:00;;;;;;;5.35;1.50;;;;;;;3.86;47.63;100326.34;5013454;28;20046;-78
2023/03/11 02:53:32;;;;;;;4.15;1.25;;;;;;;3.86;47.57;100329.03;5011737;28;20050;-78
2023/03/11 02:56:00;;;;;;;3.95;1.45;;;;;;;3.83;47.60;100331.94;5018278;28;20382;-78
2023/03/11 02:58:30;;;;;;;3.72;1.25;;;;;;;3.83;47.48;100335.53;5014494;28;20135;-78
2023/03/11 03:00:58;;;;;;;2.33;1.10;;;;;;;3.80;47.44;100329.47;5003236;28;20053;-78
2023/03/11 03:03:26;;;;;;;4.55;1.65;;;;;;;3.79;47.48;100334.00;5011214;28;20137;-78
2023/03/11 03:05:54;;;;;;;2.70;1.33;;;;;;;3.77;47.42;100325.13;5034409;23;20056;-75
2023/03/11 03:08:22;;;;;;;3.10;1.27;;;;;;;3.74;47.20;100331.59;5010657;28;20504;-74
2023/03/11 03:10:49;;;;;;;3.25;1.20;;;;;;;3.73;47.34;100337.09;5011323;28;20528;-75
2023/03/11 03:13:17;;;;;;;4.20;1.38;;;;;;;3.72;47.22;100336.28;5032599;28;20420;-76
2023/03/11 03:15:47;;;;;;;2.95;1.35;;;;;;;3.71;47.23;100342.66;5021799;28;20085;-74
2023/03/11 03:18:14;;;;;;;4.15;1.30;;;;;;;3.68;47.49;100334.72;5027220;28;20048;-76
2023/03/11 03:20:42;;;;;;;2.80;1.20;;;;;;;3.68;47.43;100344.69;5011158;28;20038;-76
2023/03/11 03:23:10;;;;;;;3.13;1.30;;;;;;;3.66;47.64;100346.63;5046994;28;20112;-75
2023/03/11 03:25:42;;;;;;;3.03;1.20;;;;;;;3.67;47.06;100340.25;5021918;28;20033;-75
2023/03/11 03:28:10;;;;;;;2.72;1.20;;;;;;;3.64;47.41;100343.16;5014919;28;20384;-76
2023/03/11 03:30:41;;;;;;;3.42;1.10;;;;;;;3.63;47.19;100347.72;5023387;28;20049;-76
2023/03/11 03:33:11;;;;;;;3.78;1.20;;;;;;;3.62;46.65;100345.97;5021440;28;20052;-75
2023/03/11 03:35:41;;;;;;;4.53;1.25;;;;;;;3.61;46.64;100340.66;5041568;28;20038;-75
2023/03/11 03:38:15;;;;;;;2.17;1.13;;;;;;;3.58;47.15;100346.25;5026796;28;20049;-76
2023/03/11 03:40:46;;;;;;;3.15;1.20;;;;;;;3.58;46.87;100348.97;5017629;28;20403;-76
2023/03/11 03:43:16;;;;;;;2.47;1.50;;;;;;;3.54;47.21;100351.03;5013690;28;20234;-76
2023/03/11 03:45:45;;;;;;;3.33;1.15;;;;;;;3.54;47.22;100359.16;5019568;28;20054;-76
2023/03/11 03:48:15;;;;;;;2.70;1.50;;;;;;;3.53;46.99;100365.53;5018175;28;20054;-74
2023/03/11 03:50:45;;;;;;;3.42;1.35;;;;;;;3.51;47.08;100367.44;5018823;28;20060;-74
2023/03/11 03:53:15;;;;;;;5.15;2.08;;;;;;;3.50;47.17;100371.13;5028795;28;20439;-74
2023/03/11 03:55:43;;;;;;;3.67;1.25;;;;;;;3.49;47.14;100377.50;5043661;28;20141;-74
2023/03/11 03:58:11;;;;;;;4.15;1.23;;;;;;;3.47;46.93;100384.00;5024638;28;20061;-73
2023/03/11 04:00:40;;;;;;;2.58;1.25;;;;;;;3.46;46.82;100380.44;5041631;28;20045;-74
2023/03/11 04:03:08;;;;;;;2.75;1.30;;;;;;;3.45;46.89;100385.94;5025400;28;20111;-74
2023/03/11 04:05:47;;;;;;;3.03;1.30;;;;;;;3.44;46.68;100384.19;5008470;28;20048;-74
2023/03/11 04:08:15;;;;;;;4.32;1.38;;;;;;;3.42;46.88;100394.25;5014404;28;20416;-74
2023/03/11 04:10:43;;;;;;;3.90;1.73;;;;;;;3.40;46.95;100397.03;5015220;28;20417;-74
2023/03/11 04:13:11;;;;;;;4.78;1.23;;;;;;;3.39;46.86;100398.91;5020055;28;20120;-74
2023/03/11 04:15:41;;;;;;;2.83;1.17;;;;;;;3.37;46.89;100399.97;5029926;28;20439;-74
2023/03/11 04:18:09;;;;;;;4.70;1.50;;;;;;;3.35;46.91;100405.47;5021508;28;20461;-74
2023/03/11 04:20:38;;;;;;;2.45;1.20;;;;;;;3.35;46.97;100405.47;5027089;28;20617;-74
2023/03/11 04:23:08;;;;;;;3.58;1.30;;;;;;;3.33;46.57;100407.38;5017005;28;20516;-74
2023/03/11 04:25:36;;;;;;;2.78;1.30;;;;;;;3.32;46.78;100418.31;5011154;28;20448;-74
2023/03/11 04:28:04;;;;;;;2.58;1.08;;;;;;;3.31;47.09;100411.19;5011670;28;20136;-74
2023/03/11 04:30:33;;;;;;;3.42;1.20;;;;;;;3.29;46.86;100415.78;5016593;28;20042;-73
2023/03/11 04:33:01;;;;;;;3.50;1.35;;;;;;;3.29;46.90;100415.78;5024894;28;20415;-74
2023/03/11 04:35:30;;;;;;;4.13;1.50;;;;;;;3.28;46.96;100423.03;5015335;28;20049;-74
2023/03/11 04:37:59;;;;;;;3.15;1.33;;;;;;;3.27;46.88;100424.00;5021381;28;20388;-74
2023/03/11 04:40:28;;;;;;;3.05;1.52;;;;;;;3.28;46.86;100427.56;5015972;28;20049;-74
2023/03/11 04:42:57;;;;;;;4.00;1.33;;;;;;;3.25;46.89;100427.75;5016666;28;20390;-74
2023/03/11 04:45:25;;;;;;;4.10;1.33;;;;;;;3.24;47.06;100440.41;5022510;28;20049;-73
2023/03/11 04:47:55;;;;;;;3.05;1.10;;;;;;;3.23;46.83;100438.69;5018091;28;20050;-73
2023/03/11 04:50:24;;;;;;;3.65;1.27;;;;;;;3.22;46.42;100436.94;5033700;28;20108;-74
2023/03/11 04:52:52;;;;;;;4.57;1.30;;;;;;;3.22;46.80;100441.47;5020803;28;20366;-74
2023/03/11 04:55:20;;;;;;;2.80;1.40;;;;;;;3.20;46.72;100441.56;5013153;28;20104;-74
2023/03/11 04:57:49;;;;;;;3.03;1.25;;;;;;;3.21;46.65;100437.03;5018190;28;20042;-74
2023/03/11 05:00:23;;;;;;;2.50;1.15;;;;;;;3.19;46.97;100453.34;5018161;28;20342;-74
2023/03/11 05:02:58;;;;;;;4.47;1.60;;;;;;;3.17;46.67;100451.72;5018314;28;20034;-74
2023/03/11 05:05:27;;;;;;;3.38;1.10;;;;;;;3.17;46.80;100454.41;5021200;28;20041;-74
2023/03/11 05:07:55;;;;;;;2.17;0.85;;;;;;;3.14;46.88;100450.09;5017095;28;20437;-73
2023/03/11 05:10:23;;;;;;;3.40;1.25;;;;;;;3.14;46.68;100452.78;5005882;28;20048;-74
2023/03/11 05:12:56;;;;;;;2.97;1.20;;;;;;;3.14;46.59;100454.63;5015710;28;20045;-74
2023/03/11 05:15:30;;;;;;;2.85;1.20;;;;;;;3.12;46.87;100452.00;5012295;28;20125;-74
2023/03/11 05:18:00;;;;;;;4.38;1.35;;;;;;;3.10;46.95;100448.53;5028128;28;20045;-74
2023/03/11 05:20:31;;;;;;;7.60;1.50;;;;;;;3.10;47.02;100458.47;5020132;28;20519;-74
2023/03/11 05:22:59;;;;;;;3.30;1.20;;;;;;;3.09;46.82;100464.84;5021637;28;20042;-74
2023/03/11 05:25:30;;;;;;;3.30;1.23;;;;;;;3.08;46.86;100466.66;5015231;28;20041;-74
2023/03/11 05:27:59;;;;;;;2.85;1.15;;;;;;;3.08;46.80;100450.44;5042987;28;20037;-74
2023/03/11 05:30:28;;;;;;;3.63;1.33;;;;;;;3.07;47.09;100473.03;5016513;28;20045;-74
2023/03/11 05:32:57;;;;;;;5.20;1.38;;;;;;;3.05;46.88;100464.19;5032348;28;20052;-74
2023/03/11 05:35:25;;;;;;;4.10;1.30;;;;;;;3.05;46.91;100463.31;5014742;28;20037;-74
2023/03/11 05:37:53;;;;;;;3.30;1.15;;;;;;;3.03;47.00;100475.09;5017024;28;20137;-74
2023/03/11 05:40:23;;;;;;;1.83;1.10;;;;;;;3.02;47.27;100469.78;5018557;28;20050;-73
2023/03/11 05:42:51;;;;;;;2.17;1.10;;;;;;;3.02;47.05;100476.03;5015432;28;20061;-74
2023/03/11 05:45:20;;;;;;;4.97;1.48;;;;;;;3.02;46.91;100475.19;5014573;28;20111;-74
2023/03/11 05:47:51;;;;;;;3.13;1.35;;;;;;;3.02;46.97;100480.59;5014394;28;20046;-74
2023/03/11 05:50:20;;;;;;;2.17;1.10;;;;;;;3.01;47.31;100484.25;5025627;28;20045;-74
2023/03/11 05:52:49;;;;;;;3.50;1.40;;;;;;;3.00;47.17;100480.66;5017679;28;20076;-74
2023/03/11 05:55:18;;;;;;;3.80;1.50;;;;;;;3.00;47.31;100480.66;5023826;28;20057;-74
2023/03/11 05:57:46;;;;;;;4.43;1.30;;;;;;;3.02;47.27;100484.16;5011948;28;20128;-74
2023/03/11 06:00:15;;;;;;;3.28;1.30;;;;;;;3.02;47.07;100481.44;5014126;28;20527;-74
2023/03/11 06:02:50;;;;;;;3.60;1.50;;;;;;;3.03;47.26;100485.03;5019770;28;20045;-74
2023/03/11 06:05:19;;;;;;;3.47;1.17;;;;;;;3.03;47.45;100490.44;5015409;28;20407;-74
2023/03/11 06:07:49;;;;;;;4.32;1.20;;;;;;;3.03;47.34;100490.44;5027040;28;20044;-74
2023/03/11 06:10:18;;;;;;;4.32;1.30;;;;;;;3.05;47.36;100498.47;5017571;28;20132;-74
2023/03/11 06:12:46;;;;;;;4.40;1.30;;;;;;;3.05;47.36;100502.03;5021141;28;20492;-74
2023/03/11 06:15:25;;;;;;;5.00;1.40;;;;;;;3.02;47.41;100503.09;5017372;28;20100;-74
2023/03/11 06:17:55;;;;;;;2.25;1.20;;;;;;;3.06;47.33;100501.06;5019431;28;20466;-74
2023/03/11 06:20:23;;;;;;;3.92;1.50;;;;;;;3.05;47.38;100504.75;5018204;28;20046;-74
2023/03/11 06:22:52;;;;;;;3.25;1.38;;;;;;;3.06;47.50;100502.91;5015703;28;20439;-74
2023/03/11 06:25:23;;;;;;;6.35;1.70;;;;;;;3.07;47.48;100501.94;5018460;28;20128;-74
2023/03/11 06:27:53;;;;;;;3.42;1.48;;;;;;;3.07;47.42;100510.06;5043221;28;20136;-74
2023/03/11 06:30:24;;;;;;;2.83;1.40;;;;;;;3.09;47.30;100518.91;5023001;28;20049;-74
2023/03/11 06:33:04;;;;;;;5.55;1.80;;;;;;;3.08;47.32;100522.56;5018847;28;20150;-74
2023/03/11 06:35:32;;;;;;;5.03;1.75;;;;;;;3.09;47.37;100527.03;5022356;28;20048;-74
2023/03/11 06:38:00;;;;;;;3.38;1.70;;;;;;;3.09;47.33;100527.03;5018400;28;20046;-74
2023/03/11 06:40:28;;;;;;;2.83;1.60;;;;;;;3.10;47.50;100529.63;5020998;28;20068;-74
2023/03/11 06:42:56;;;;;;;4.05;1.65;;;;;;;3.10;47.45;100529.63;5025227;28;20076;-74
2023/03/11 06:45:25;;;;;;;5.75;1.90;;;;;;;3.11;47.46;100544.91;5017481;28;20057;-74
2023/03/11 06:47:53;;;;;;;4.22;1.60;;;;;;;3.10;47.50;100540.47;5022183;28;20407;-74
2023/03/11 06:50:23;;;;;;;5.00;1.80;;;;;;;3.13;47.20;100539.41;5016563;28;20378;-74
2023/03/11 06:52:53;;;;;;;3.15;1.60;;;;;;;3.11;47.45;100544.03;5026027;28;20437;-74
2023/03/11 06:55:21;;;;;;;3.80;1.70;;;;;;;3.11;47.21;100549.44;5023914;28;20045;-74
2023/03/11 06:57:49;;;;;;;5.55;1.45;;;;;;;3.12;47.32;100559.28;5009831;28;20068;-74
2023/03/11 07:00:17;;;;;;;3.95;1.60;;;;;;;3.13;47.51;100563.75;5038513;28;20402;-74
2023/03/11 07:02:51;;;;;;;6.88;2.28;;;;;;;3.12;47.79;100567.41;5044327;28;20041;-74
2023/03/11 07:05:19;;;;;;;3.40;1.63;;;;;;;3.14;47.75;100574.47;5021281;28;20053;-73
2023/03/11 07:07:53;;;;;;;3.80;1.50;;;;;;;3.17;47.14;100582.38;5026368;28;20586;-73
2023/03/11 07:10:22;;;;;;;4.22;1.65;;;;;;;3.17;47.74;100598.59;5016825;28;20045;-74
2023/03/11 07:12:50;;;;;;;5.00;1.60;;;;;;;3.20;47.79;100597.56;5024462;28;20040;-72
2023/03/11 07:15:19;;;;;;;6.38;1.80;;;;;;;3.24;48.22;100599.09;5021145;28;20066;-73
2023/03/11 07:17:47;;;;;;;5.43;1.45;;;;;;;3.30;48.90;100601.44;5025860;28;20125;-72
2023/03/11 07:20:15;;;;;;;4.53;1.50;;;;;;;3.39;49.71;100601.78;5022707;28;20044;-73
2023/03/11 07:22:43;;;;;;;5.18;1.65;;;;;;;3.55;50.39;100606.22;5022270;28;20044;-73
2023/03/11 07:25:12;;;;;;;3.63;1.65;;;;;;;3.74;50.61;100606.78;5027192;28;20059;-76
2023/03/11 07:27:40;;;;;;;4.78;1.48;;;;;;;3.95;51.44;100610.88;5027430;28;20038;-74
2023/03/11 07:30:10;;;;;;;2.85;1.33;;;;;;;4.23;51.44;100618.06;5027553;28;20046;-72
2023/03/11 07:32:38;;;;;;;5.00;1.73;;;;;;;4.50;51.67;100609.97;5033251;28;20030;-73
2023/03/11 07:35:07;;;;;;;3.70;1.50;;;;;;;4.78;51.62;100620.72;5027213;28;20053;-73
2023/03/11 07:37:34;;;;;;;4.30;1.52;;;;;;;5.07;51.59;100626.84;5027590;28;20544;-74
2023/03/11 07:40:02;;;;;;;3.88;1.42;;;;;;;5.36;51.61;100630.31;5029032;28;20054;-74
2023/03/11 07:42:32;;;;;;;2.60;1.35;;;;;;;5.66;51.07;100641.75;5014901;28;20038;-75
2023/03/11 07:45:00;;;;;;;4.30;1.80;;;;;;;5.93;50.66;100636.19;5013822;28;20054;-74
2023/03/11 07:47:28;;;;;;;3.70;1.73;;;;;;;6.21;50.26;100639.63;5012955;28;20048;-74
2023/03/11 07:49:56;;;;;;;3.17;1.48;;;;;;;6.45;50.00;100640.53;5011661;28;20078;-74
2023/03/11 07:52:24;;;;;;;3.20;1.70;;;;;;;6.70;49.91;100645.00;5014800;28;20042;-75
2023/03/11 07:54:51;;;;;;;3.78;1.50;;;;;;;6.92;49.03;100649.75;5032726;28;20546;-74
2023/03/11 07:57:19;;;;;;;4.38;1.60;;;;;;;7.11;49.06;100659.09;5034488;28;20064;-75
2023/03/11 07:59:49;;;;;;;4.65;1.75;;;;;;;7.29;47.97;100662.28;5031506;28;20402;-75
2023/03/11 08:02:17;;;;;;;7.15;2.05;;;;;;;7.45;47.74;100665.56;5023216;28;20042;-75
2023/03/11 08:04:45;;;;;;;3.90;1.55;;;;;;;7.57;47.09;100661.00;5012998;28;20471;-75
2023/03/11 08:07:13;;;;;;;4.20;1.40;;;;;;;7.69;46.52;100660.03;5012534;28;20041;-75
2023/03/11 08:09:40;;;;;;;5.63;1.70;;;;;;;7.79;45.90;100663.78;5017096;28;20038;-75
2023/03/11 08:12:09;;;;;;;4.68;2.00;;;;;;;7.88;45.12;100665.78;5028965;28;20140;-76
2023/03/11 08:14:38;;;;;;;4.05;1.40;;;;;;;7.93;45.12;100666.25;5032670;28;20257;-75
2023/03/11 08:17:07;;;;;;;3.30;1.63;;;;;;;7.98;43.97;100668.66;5020751;28;20042;-75
2023/03/11 08:19:35;;;;;;;2.55;1.10;;;;;;;7.99;44.37;100669.50;5011810;28;20121;-75
2023/03/11 08:22:03;;;;;;;4.40;1.45;;;;;;;7.99;44.04;100674.97;5011862;28;20052;-75
2023/03/11 08:24:31;;;;;;;3.60;1.50;;;;;;;7.96;43.74;100674.22;5012993;28;20042;-75
2023/03/11 08:26:59;;;;;;;4.25;1.40;;;;;;;7.94;43.49;100672.59;5013664;28;20046;-75
2023/03/11 08:29:27;;;;;;;3.08;1.45;;;;;;;7.90;43.43;100662.94;5029653;28;20042;-75
2023/03/11 08:31:55;;;;;;;3.38;1.25;;;;;;;7.87;43.29;100672.22;5048504;28;20057;-75
2023/03/11 08:34:26;;;;;;;3.92;1.40;;;;;;;7.85;42.93;100676.03;5029930;28;20033;-75
2023/03/11 08:36:54;;;;;;;3.60;1.77;;;;;;;7.80;43.34;100673.69;5011550;28;20050;-75
2023/03/11 08:39:22;;;;;;;3.03;1.40;;;;;;;7.78;43.21;100675.66;5010457;28;20038;-75
2023/03/11 08:41:51;;;;;;;5.53;1.65;;;;;;;7.76;43.17;100682.25;5050801;28;20376;-75
2023/03/11 08:44:19;;;;;;;4.00;1.30;;;;;;;7.72;43.30;100681.59;5049214;28;20053;-75
2023/03/11 08:46:47;;;;;;;2.88;1.15;;;;;;;7.70;43.17;100678.13;5030166;28;20041;-76
2023/03/11 08:49:15;;;;;;;2.60;1.40;;;;;;;7.68;42.75;100681.97;5033303;28;20167;-76
2023/03/11 08:51:44;;;;;;;3.28;1.30;;;;;;;7.67;42.50;100682.97;5013485;28;20045;-76
2023/03/11 08:54:12;;;;;;;3.63;1.17;;;;;;;7.64;43.09;100677.75;5026305;28;20411;-76
2023/03/11 08:56:40;;;;;;;3.72;1.20;;;;;;;7.61;42.38;100673.38;5013317;28;20409;-77
2023/03/11 08:59:07;;;;;;;1.90;1.05;;;;;;;7.62;42.63;100682.44;5040056;28;20099;-76
2023/03/11 09:01:35;;;;;;;3.40;1.35;;;;;;;7.58;42.57;100679.09;5025488;28;20049;-76
2023/03/11 09:04:03;;;;;;;2.10;0.95;;;;;;;7.62;42.26;100687.88;5020423;28;20397;-75
2023/03/11 09:06:31;;;;;;;3.47;1.10;;;;;;;7.60;42.18;100682.53;5034166;28;20091;-75
2023/03/11 09:09:01;;;;;;;2.95;1.15;;;;;;;7.63;41.55;100686.91;5024116;28;20042;-77
2023/03/11 09:11:29;;;;;;;3.72;1.30;;;;;;;7.61;42.17;100681.56;5023185;28;20472;-77
2023/03/11 09:13:56;;;;;;;3.28;1.10;;;;;;;7.62;41.48;100694.19;5015173;28;20041;-77
2023/03/11 09:16:25;;;;;;;2.25;0.95;;;;;;;7.63;41.51;100690.47;5021503;28;20045;-77
2023/03/11 09:18:53;;;;;;;3.92;1.45;;;;;;;7.63;41.29;100684.16;5031489;28;20560;-77
2023/03/11 09:21:21;;;;;;;2.10;1.02;;;;;;;7.64;41.15;100684.06;5028421;28;20561;-76
2023/03/11 09:23:49;;;;;;;2.05;1.23;;;;;;;7.63;40.73;100684.16;5016591;28;20532;-77
2023/03/11 09:26:19;;;;;;;3.15;1.25;;;;;;;7.65;39.98;100676.75;5023554;28;20061;-76
2023/03/11 09:28:47;;;;;;;4.72;1.50;;;;;;;7.65;40.84;100677.63;5023120;28;20646;-76
2023/03/11 09:31:16;;;;;;;2.55;1.20;;;;;;;7.67;40.54;100680.22;5020304;28;20494;-76
2023/03/11 09:33:45;;;;;;;4.57;1.20;;;;;;;7.66;40.87;100679.38;5025398;28;20065;-76
2023/03/11 09:36:15;;;;;;;4.53;1.15;;;;;;;7.69;40.35;100686.41;5022458;28;20042;-77
2023/03/11 09:38:43;;;;;;;2.33;1.05;;;;;;;7.67;40.17;100692.00;5018467;28;20568;-77
2023/03/11 09:41:27;;;;;;;3.60;1.10;;;;;;;7.69;38.19;100691.84;5018620;28;20041;-77
2023/03/11 09:44:21;;;;;;;3.50;0.73;;;;;;;7.61;37.06;100697.03;5024725;28;20073;-76
2023/03/11 09:47:09;;;;;;;1.67;0.68;;;;;;;7.57;35.22;100702.75;5012637;28;20531;-76
2023/03/11 09:49:50;;;;;;;2.17;0.75;;;;;;;7.53;35.51;100705.78;5020139;28;20528;-76
2023/03/11 09:52:29;;;;;;;1.65;0.60;;;;;;;7.49;36.83;100687.97;5025091;28;20045;-77
2023/03/11 09:54:59;;;;;;;2.53;0.95;;;;;;;7.41;38.36;100702.19;5028591;28;20048;-76
2023/03/11 09:57:32;;;;;;;2.30;1.10;;;;;;;7.38;37.96;100699.69;5018618;28;20053;-77
2023/03/11 10:00:03;;;;;;;4.05;1.20;;;;;;;7.34;38.71;100709.09;5041298;28;20111;-78
2023/03/11 10:02:40;;;;;;;2.03;1.20;;;;;;;7.33;38.80;100703.75;5025648;28;20054;-78
2023/03/11 10:05:16;;;;;;;2.70;1.25;;;;;;;7.35;37.37;100708.13;5025895;28;20132;-78
2023/03/11 10:07:51;;;;;;;3.60;1.30;;;;;;;7.35;38.08;100719.00;5025081;28;20033;-77
2023/03/11 10:10:20;;;;;;;1.90;1.20;;;;;;;7.33;38.66;100712.78;5023081;28;20080;-77
2023/03/11 10:12:55;;;;;;;3.30;1.40;;;;;;;7.38;37.10;100724.19;5023173;28;20038;-77
2023/03/11 10:15:34;;;;;;;2.67;1.20;;;;;;;7.40;36.79;100732.25;5031784;28;20053;-78
2023/03/11 10:18:19;;;;;;;3.83;1.30;;;;;;;7.39;37.51;100730.50;5014047;28;20078;-79
2023/03/11 10:20:57;;;;;;;4.22;1.48;;;;;;;7.40;36.72;100727.66;5026329;28;20136;-77
2023/03/11 10:23:30;;;;;;;2.83;1.10;;;;;;;7.40;38.02;100734.97;5025238;28;20053;-77
2023/03/11 10:26:08;;;;;;;3.50;1.10;;;;;;;7.40;37.07;100734.97;5009185;28;20081;-77
2023/03/11 10:28:42;;;;;;;2.85;1.20;;;;;;;7.39;36.82;100733.22;5010533;28;20044;-77
2023/03/11 10:31:20;;;;;;;2.13;1.10;;;;;;;7.37;36.89;100730.63;5016833;28;20041;-77
2023/03/11 10:33:52;;;;;;;2.70;1.10;;;;;;;7.35;37.74;100735.34;5025192;28;20045;-77
2023/03/11 10:36:25;;;;;;;2.75;1.20;;;;;;;7.34;38.09;100738.16;5022749;28;20060;-78
2023/03/11 10:38:54;;;;;;;;;;;;;;;7.07;37.46;100747.41;5019060;28;20065;-77
2023/03/11 10:41:28;;;;;;;2.08;1.00;;;;;;;7.26;37.00;100746.03;5019114;28;19936;-77
2023/03/11 10:44:04;;;;;;;1.92;1.08;;;;;;;7.26;37.57;100743.31;5029772;28;20056;-77
2023/03/11 10:46:32;;;;;;;1.77;1.00;;;;;;;7.24;38.40;100753.44;5022679;28;20512;-78
2023/03/11 10:49:01;;;;;;;3.28;1.52;;;;;;;7.21;37.79;100743.66;5017852;28;20409;-78
2023/03/11 10:51:34;;;;;;;2.60;1.27;;;;;;;7.17;36.84;100748.47;5015598;28;20153;-77
2023/03/11 10:54:03;;;;;;;3.25;1.30;;;;;;;7.18;37.98;100750.22;5026464;28;20099;-77
2023/03/11 10:56:33;;;;;;;2.55;1.20;;;;;;;7.15;37.81;100747.72;5032137;28;20408;-77
2023/03/11 10:59:06;;;;;;;2.47;1.25;;;;;;;7.15;37.14;100727.78;5009224;28;20050;-76
2023/03/11 11:01:34;;;;;;;3.53;1.27;;;;;;;7.11;37.66;100727.16;5020186;28;20432;-77
2023/03/11 11:04:02;;;;;;;2.88;1.20;;;;;;;7.13;37.43;100727.03;5019473;28;20489;-77
2023/03/11 11:06:32;;;;;;;2.55;1.30;;;;;;;7.15;37.51;100730.53;5019932;28;20131;-78
2023/03/11 11:09:18;;;;;;;3.10;1.30;;;;;;;7.13;34.36;100738.78;5010478;28;20045;-77
2023/03/11 11:12:02;;;;;;;3.47;1.15;;;;;;;7.12;34.81;100728.88;5036637;28;20504;-76
2023/03/11 11:14:49;;;;;;;2.50;1.10;;;;;;;7.09;35.22;100729.13;5031008;28;20101;-78
2023/03/11 11:17:27;;;;;;;2.65;1.20;;;;;;;7.11;35.57;100723.56;5025769;28;20111;-78
2023/03/11 11:19:57;;;;;;;2.63;1.13;;;;;;;7.10;37.37;100730.00;5014069;28;20046;-78
2023/03/11 11:22:26;;;;;;;3.40;1.20;;;;;;;7.08;36.90;100721.94;5034004;28;20081;-77
2023/03/11 11:24:55;;;;;;;1.75;1.13;;;;;;;7.10;37.17;100736.31;5029323;28;20053;-77
2023/03/11 11:27:25;;;;;;;2.35;1.00;;;;;;;7.10;36.94;100740.88;5023942;28;20068;-78
2023/03/11 11:30:15;;;;;;;4.18;1.45;;;;;;;7.09;35.64;100737.31;5025997;28;20053;-77
2023/03/11 11:32:43;;;;;;;3.17;1.40;;;;;;;7.08;37.48;100742.84;5015300;28;20057;-77
2023/03/11 11:35:13;;;;;;;2.67;1.20;;;;;;;7.12;36.83;100749.78;5019212;28;20452;-78
2023/03/11 11:37:43;;;;;;;3.28;1.17;;;;;;;7.12;36.86;100755.22;5026496;28;20557;-77
2023/03/11 11:40:23;;;;;;;2.92;1.30;;;;;;;7.14;35.56;100756.88;5032595;28;20036;-77
2023/03/11 11:42:54;;;;;;;3.75;1.20;;;;;;;7.13;36.92;100749.69;5028504;28;20642;-77
2023/03/11 11:45:30;;;;;;;2.90;1.17;;;;;;;7.14;36.07;100751.41;5018133;28;20053;-78
2023/03/11 11:48:02;;;;;;;10.43;2.00;;;;;;;7.14;36.69;100753.28;5022328;28;20056;-77